createdAt,value
2024-02-05T00:01:40.310Z,100887.78
2024-02-05T00:04:43.097Z,100879.06
2024-02-05T00:07:45.143Z,100878.78
2024-02-05T00:10:47.609Z,100877.81
2024-02-05T00:13:49.464Z,100868.63
2024-02-05T00:16:51.210Z,100855.03
2024-02-05T00:19:53.773Z,100856.78
2024-02-05T00:22:56.090Z,100857.47
2024-02-05T00:25:57.866Z,100849.69
2024-02-05T00:29:00.765Z,100849.25
2024-02-05T00:32:02.481Z,100840.69
2024-02-05T00:35:04.737Z,100836.47
2024-02-05T00:38:07.033Z,100843.41
2024-02-05T00:41:09.511Z,100846.13
2024-02-05T00:44:11.811Z,100848.88
2024-02-05T00:47:13.699Z,100856.03
2024-02-05T00:50:15.442Z,100882.59
2024-02-05T00:53:17.280Z,100866.19
2024-02-05T00:56:19.634Z,100863.31
2024-02-05T00:59:21.443Z,100843.97
2024-02-05T01:02:24.442Z,100844.44
2024-02-05T01:05:26.915Z,100838.38
2024-02-05T01:08:28.913Z,100848.94
2024-02-05T01:11:30.683Z,100858.84
2024-02-05T01:14:33.952Z,100863.31
2024-02-05T01:17:35.780Z,100856.88
2024-02-05T01:20:37.550Z,100854.72
2024-02-05T01:23:39.456Z,100848.06
2024-02-05T01:26:41.212Z,100846.22
2024-02-05T01:29:43.655Z,100847.50
2024-02-05T01:32:45.536Z,100844.75
2024-02-05T01:35:47.287Z,100832.94
2024-02-05T01:38:49.790Z,100838.22
2024-02-05T01:41:51.655Z,100824.13
2024-02-05T01:44:54.143Z,100818.25
2024-02-05T01:47:56.231Z,100818.84
2024-02-05T01:50:58.711Z,100806.94
2024-02-05T01:54:00.553Z,100814.94
2024-02-05T01:57:07.893Z,100823.06
2024-02-05T02:00:15.855Z,100813.56
2024-02-05T02:03:18.255Z,100808.38
2024-02-05T02:06:21.819Z,100805.00
2024-02-05T02:09:24.736Z,100789.44
2024-02-05T02:12:26.936Z,100808.00
2024-02-05T02:15:28.945Z,100790.63
2024-02-05T02:18:34.237Z,100785.44
2024-02-05T02:21:36.215Z,100787.38
2024-02-05T02:24:38.094Z,100783.56
2024-02-05T02:27:42.442Z,100773.72
2024-02-05T02:30:45.006Z,100780.75
2024-02-05T02:33:57.399Z,100787.88
2024-02-05T02:37:06.804Z,100791.38
2024-02-05T02:40:15.793Z,100803.00
2024-02-05T02:43:19.440Z,100802.41
2024-02-05T02:46:23.048Z,100790.09
2024-02-05T02:49:24.957Z,100804.06
2024-02-05T02:52:26.909Z,100793.63
2024-02-05T02:55:28.993Z,100803.19
2024-02-05T02:58:30.821Z,100814.31
2024-02-05T03:01:32.713Z,100818.00
2024-02-05T03:04:34.566Z,100800.34
2024-02-05T03:07:36.499Z,100802.00
2024-02-05T03:10:38.338Z,100804.41
2024-02-05T03:13:40.035Z,100801.22
2024-02-05T03:16:41.765Z,100797.88
2024-02-05T03:19:43.612Z,100798.97
2024-02-05T03:22:52.957Z,100786.25
2024-02-05T03:26:00.312Z,100790.66
2024-02-05T03:29:02.081Z,100791.84
2024-02-05T03:32:04.894Z,100792.31
2024-02-05T03:35:08.608Z,100784.13
2024-02-05T03:38:10.461Z,100794.66
2024-02-05T03:41:12.248Z,100779.41
2024-02-05T03:44:14.028Z,100766.63
2024-02-05T03:47:15.760Z,100773.81
2024-02-05T03:50:18.554Z,100784.59
2024-02-05T03:53:20.576Z,100784.88
2024-02-05T03:56:22.382Z,100791.03
2024-02-05T03:59:24.110Z,100786.78
2024-02-05T04:02:28.210Z,100778.66
2024-02-05T04:05:32.756Z,100785.50
2024-02-05T04:08:35.007Z,100788.72
2024-02-05T04:11:40.075Z,100808.69
2024-02-05T04:14:41.841Z,100800.91
2024-02-05T04:17:43.824Z,100798.47
2024-02-05T04:20:45.614Z,100793.28
2024-02-05T04:23:47.380Z,100789.50
2024-02-05T04:26:49.106Z,100790.56
2024-02-05T04:29:51.004Z,100790.94
2024-02-05T04:32:52.781Z,100784.94
2024-02-05T04:35:55.081Z,100784.09
2024-02-05T04:38:56.850Z,100771.22
2024-02-05T04:41:58.676Z,100764.59
2024-02-05T04:45:00.484Z,100758.66
2024-02-05T04:48:02.304Z,100764.69
2024-02-05T04:51:10.966Z,100762.22
2024-02-05T04:54:12.835Z,100762.22
2024-02-05T04:57:14.573Z,100747.28
2024-02-05T05:00:17.356Z,100744.53
2024-02-05T05:03:19.115Z,100743.69
2024-02-05T05:06:20.926Z,100751.28
2024-02-05T05:09:23.328Z,100749.94
2024-02-05T05:12:25.217Z,100749.13
2024-02-05T05:15:29.049Z,100743.47
2024-02-05T05:18:39.001Z,100755.03
2024-02-05T05:21:41.002Z,100741.56
2024-02-05T05:24:42.877Z,100736.56
2024-02-05T05:27:44.744Z,100745.47
2024-02-05T05:30:46.589Z,100747.44
2024-02-05T05:33:48.623Z,100749.75
2024-02-05T05:36:50.474Z,100747.56
2024-02-05T05:39:52.714Z,100749.47
2024-02-05T05:42:56.616Z,100758.00
2024-02-05T05:45:59.035Z,100760.72
2024-02-05T05:49:00.890Z,100758.78
2024-02-05T05:52:02.767Z,100754.00
2024-02-05T05:55:04.984Z,100757.78
2024-02-05T05:58:12.788Z,100760.72
2024-02-05T06:01:14.766Z,100768.25
2024-02-05T06:04:16.727Z,100776.34
2024-02-05T06:07:19.488Z,100775.56
2024-02-05T06:10:21.944Z,100783.00
2024-02-05T06:13:24.012Z,100782.88
2024-02-05T06:16:25.942Z,100789.75
2024-02-05T06:19:27.899Z,100794.41
2024-02-05T06:22:29.741Z,100805.28
2024-02-05T06:25:31.558Z,100799.91
2024-02-05T06:28:33.518Z,100792.38
2024-02-05T06:31:35.366Z,100804.69
2024-02-05T06:34:37.295Z,100809.75
2024-02-05T06:37:39.248Z,100811.44
2024-02-05T06:40:41.110Z,100806.53
2024-02-05T06:43:43.074Z,100815.41
2024-02-05T06:46:45.969Z,100818.38
2024-02-05T06:49:47.889Z,100814.38
2024-02-05T06:52:50.216Z,100807.75
2024-02-05T06:55:52.054Z,100816.44
2024-02-05T06:58:53.883Z,100809.91
2024-02-05T07:02:20.629Z,100809.97
2024-02-05T07:05:24.372Z,100808.00
2024-02-05T07:08:26.435Z,100817.78
2024-02-05T07:11:28.403Z,100806.63
2024-02-05T07:14:30.232Z,100803.22
2024-02-05T07:17:34.142Z,100803.22
2024-02-05T07:20:35.995Z,100818.78
2024-02-05T07:23:39.127Z,100802.34
2024-02-05T07:26:41.115Z,100814.25
2024-02-05T07:29:43.650Z,100813.28
2024-02-05T07:32:45.991Z,100822.19
2024-02-05T07:35:48.165Z,100829.03
2024-02-05T07:38:50.292Z,100837.69
2024-02-05T07:41:52.122Z,100849.13
2024-02-05T07:44:53.995Z,100849.91
2024-02-05T07:47:55.819Z,100853.63
2024-02-05T07:50:57.739Z,100848.16
2024-02-05T07:53:59.710Z,100850.00
2024-02-05T07:57:04.208Z,100851.16
2024-02-05T08:00:06.773Z,100868.06
2024-02-05T08:03:08.715Z,100865.34
2024-02-05T08:06:19.637Z,100870.53
2024-02-05T08:09:21.529Z,100866.41
2024-02-05T08:12:23.631Z,100862.81
2024-02-05T08:15:25.493Z,100856.06
2024-02-05T08:18:27.231Z,100872.50
2024-02-05T08:21:29.081Z,100876.53
2024-02-05T08:24:30.933Z,100885.13
2024-02-05T08:27:32.725Z,100871.38
2024-02-05T08:30:34.555Z,100858.25
2024-02-05T08:33:36.440Z,100870.09
2024-02-05T08:36:38.294Z,100866.47
2024-02-05T08:39:40.133Z,100869.97
2024-02-05T08:42:46.793Z,100863.03
2024-02-05T08:45:51.555Z,100862.81
2024-02-05T08:48:53.679Z,100866.53
2024-02-05T08:51:56.109Z,100853.56
2024-02-05T08:54:58.044Z,100855.31
2024-02-05T08:58:00.645Z,100859.72
2024-02-05T09:01:02.600Z,100863.13
2024-02-05T09:04:04.509Z,100874.78
2024-02-05T09:07:06.464Z,100866.38
2024-02-05T09:10:08.847Z,100865.19
2024-02-05T09:13:10.782Z,100861.66
2024-02-05T09:16:17.480Z,100872.53
2024-02-05T09:19:20.232Z,100870.63
2024-02-05T09:22:22.197Z,100881.34
2024-02-05T09:25:24.134Z,100891.75
2024-02-05T09:28:25.989Z,100880.19
2024-02-05T09:31:27.849Z,100881.84
2024-02-05T09:34:29.735Z,100882.88
2024-02-05T09:37:31.642Z,100880.47
2024-02-05T09:40:33.840Z,100880.53
2024-02-05T09:43:43.362Z,100885.69
2024-02-05T09:46:53.573Z,100877.13
2024-02-05T09:49:58.137Z,100864.56
2024-02-05T09:53:02.528Z,100869.97
2024-02-05T09:56:07.263Z,100874.47
2024-02-05T09:59:10.775Z,100870.06
2024-02-05T10:02:16.786Z,100864.44
2024-02-05T10:05:21.790Z,100848.84
2024-02-05T10:08:24.486Z,100857.31
2024-02-05T10:11:28.444Z,100836.59
2024-02-05T10:14:30.445Z,100838.91
2024-02-05T10:17:32.325Z,100840.84
2024-02-05T10:20:34.701Z,100832.84
2024-02-05T10:23:36.492Z,100839.19
2024-02-05T10:26:38.332Z,100843.19
2024-02-05T10:29:40.088Z,100842.06
2024-02-05T10:32:42.037Z,100837.97
2024-02-05T10:35:44.614Z,100845.00
2024-02-05T10:38:47.253Z,100842.69
2024-02-05T10:41:49.202Z,100841.78
2024-02-05T10:44:51.891Z,100837.69
2024-02-05T10:47:53.806Z,100841.88
2024-02-05T10:50:55.848Z,100842.25
2024-02-05T10:53:58.840Z,100834.31
2024-02-05T10:57:01.362Z,100835.09
2024-02-05T11:00:03.452Z,100839.41
2024-02-05T11:03:12.570Z,100838.00
2024-02-05T11:06:18.123Z,100839.97
2024-02-05T11:09:24.563Z,100838.66
2024-02-05T11:12:30.536Z,100838.66
2024-02-05T11:15:38.670Z,100842.06
2024-02-05T11:18:47.195Z,100846.22
2024-02-05T11:21:56.403Z,100824.91
2024-02-05T11:24:59.107Z,100825.75
2024-02-05T11:28:02.620Z,100814.72
2024-02-05T11:31:09.526Z,100800.75
2024-02-05T11:34:12.586Z,100817.31
2024-02-05T11:37:18.253Z,100815.44
2024-02-05T11:40:23.051Z,100818.81
2024-02-05T11:43:26.912Z,100809.59
2024-02-05T11:46:29.029Z,100822.81
2024-02-05T11:49:34.910Z,100812.06
2024-02-05T11:52:44.499Z,100805.16
2024-02-05T11:55:46.439Z,100805.84
2024-02-05T11:58:52.477Z,100791.78
2024-02-05T12:01:58.228Z,100798.97
2024-02-05T12:05:01.860Z,100811.59
2024-02-05T12:08:05.083Z,100803.06
2024-02-05T12:11:07.661Z,100805.06
2024-02-05T12:14:12.175Z,100809.72
2024-02-05T12:17:14.797Z,100805.72
2024-02-05T12:20:20.715Z,100804.38
2024-02-05T12:23:22.666Z,100791.00
2024-02-05T12:26:27.862Z,100798.19
2024-02-05T12:29:30.345Z,100793.88
2024-02-05T12:32:38.457Z,100802.13
2024-02-05T12:36:08.981Z,100803.38
2024-02-05T12:39:10.956Z,100811.03
2024-02-05T12:42:13.922Z,100816.97
2024-02-05T12:45:17.757Z,100808.47
2024-02-05T12:48:23.922Z,100820.34
2024-02-05T12:51:26.079Z,100819.09
2024-02-05T12:54:27.903Z,100808.25
2024-02-05T12:57:29.841Z,100803.06
2024-02-05T13:00:31.681Z,100802.63
2024-02-05T13:03:36.086Z,100817.66
2024-02-05T13:06:38.082Z,100815.50
2024-02-05T13:09:40.903Z,100803.41
2024-02-05T13:12:43.168Z,100811.88
2024-02-05T13:15:46.351Z,100807.03
2024-02-05T13:18:48.288Z,100811.03
2024-02-05T13:21:50.320Z,100820.84
2024-02-05T13:24:52.135Z,100824.13
2024-02-05T13:27:54.133Z,100826.88
2024-02-05T13:30:56.011Z,100825.22
2024-02-05T13:33:57.951Z,100821.50
2024-02-05T13:37:00.976Z,100821.97
2024-02-05T13:40:03.170Z,100819.53
2024-02-05T13:43:06.084Z,100817.31
2024-02-05T13:46:08.051Z,100808.34
2024-02-05T13:49:10.073Z,100811.88
2024-02-05T13:52:12.318Z,100806.03
2024-02-05T13:55:16.191Z,100806.00
2024-02-05T13:58:18.418Z,100809.72
2024-02-05T14:01:21.031Z,100802.53
2024-02-05T14:04:23.194Z,100813.53
2024-02-05T14:07:25.229Z,100820.53
2024-02-05T14:10:27.159Z,100831.38
2024-02-05T14:13:28.999Z,100830.06
2024-02-05T14:16:31.172Z,100839.63
2024-02-05T14:19:37.245Z,100848.34
2024-02-05T14:22:39.110Z,100852.09
2024-02-05T14:25:40.989Z,100840.47
2024-02-05T14:28:43.116Z,100850.38
2024-02-05T14:31:45.233Z,100838.19
2024-02-05T14:34:48.362Z,100845.78
2024-02-05T14:37:52.809Z,100849.84
2024-02-05T14:40:54.641Z,100853.75
2024-02-05T14:43:56.412Z,100861.56
2024-02-05T14:46:58.231Z,100859.09
2024-02-05T14:50:00.287Z,100846.53
2024-02-05T14:53:02.560Z,100834.75
2024-02-05T14:56:05.173Z,100826.16
2024-02-05T14:59:07.697Z,100826.50
2024-02-05T15:02:10.064Z,100816.50
2024-02-05T15:05:13.544Z,100819.22
2024-02-05T15:08:15.872Z,100818.41
2024-02-05T15:11:17.680Z,100820.38
2024-02-05T15:14:19.455Z,100818.56
2024-02-05T15:17:21.228Z,100822.97
2024-02-05T15:20:23.318Z,100819.34
2024-02-05T15:23:25.205Z,100824.78
2024-02-05T15:26:27.005Z,100822.59
2024-02-05T15:29:29.189Z,100827.97
2024-02-05T15:32:31.430Z,100836.00
2024-02-05T15:35:33.369Z,100843.03
2024-02-05T15:38:35.463Z,100839.47
2024-02-05T15:41:37.377Z,100844.19
2024-02-05T15:44:39.187Z,100849.97
2024-02-05T15:47:41.408Z,100861.38
2024-02-05T15:50:43.284Z,100868.72
2024-02-05T15:53:46.854Z,100866.06
2024-02-05T15:56:48.896Z,100873.69
2024-02-05T15:59:50.775Z,100879.13
2024-02-05T16:02:52.608Z,100883.66
2024-02-05T16:05:55.697Z,100883.34
2024-02-05T16:08:57.538Z,100879.75
2024-02-05T16:11:59.799Z,100897.22
2024-02-05T16:15:01.663Z,100901.09
2024-02-05T16:18:04.768Z,100906.38
2024-02-05T16:21:06.838Z,100903.41
2024-02-05T16:24:09.003Z,100917.25
2024-02-05T16:27:11.480Z,100912.56
2024-02-05T16:30:13.859Z,100925.34
2024-02-05T16:33:16.505Z,100931.91
2024-02-05T16:36:18.816Z,100936.66
2024-02-05T16:39:21.539Z,100942.47
2024-02-05T16:42:27.609Z,100941.06
2024-02-05T16:45:29.687Z,100944.16
2024-02-05T16:48:31.545Z,100946.13
2024-02-05T16:51:33.426Z,100938.56
2024-02-05T16:54:35.445Z,100948.63
2024-02-05T16:57:37.815Z,100940.94
2024-02-05T17:00:39.656Z,100945.75
2024-02-05T17:03:41.842Z,100943.22
2024-02-05T17:06:44.488Z,100944.28
2024-02-05T17:09:47.455Z,100933.59
2024-02-05T17:12:49.764Z,100945.56
2024-02-05T17:15:51.846Z,100955.97
2024-02-05T17:18:53.821Z,100944.47
2024-02-05T17:21:57.795Z,100950.59
2024-02-05T17:25:00.447Z,100948.19
2024-02-05T17:28:02.307Z,100935.06
2024-02-05T17:31:04.261Z,100936.97
2024-02-05T17:34:06.278Z,100937.88
2024-02-05T17:37:08.295Z,100929.25
2024-02-05T17:40:10.547Z,100930.16
2024-02-05T17:43:12.347Z,100924.97
2024-02-05T17:46:14.259Z,100933.72
2024-02-05T17:49:16.428Z,100936.97
2024-02-05T17:52:18.384Z,100940.69
2024-02-05T17:55:21.271Z,100943.03
2024-02-05T17:58:23.938Z,100949.78
2024-02-05T18:01:25.884Z,100951.16
2024-02-05T18:04:27.827Z,100943.22
2024-02-05T18:07:29.802Z,100953.50
2024-02-05T18:10:31.789Z,100961.41
2024-02-05T18:13:33.799Z,100960.56
2024-02-05T18:16:37.170Z,100962.69
2024-02-05T18:19:39.154Z,100966.69
2024-02-05T18:22:41.007Z,100975.09
2024-02-05T18:25:42.883Z,100965.97
2024-02-05T18:28:44.783Z,100967.66
2024-02-05T18:31:51.140Z,100957.03
2024-02-05T18:34:53.202Z,100962.63
2024-02-05T18:37:55.158Z,100974.25
2024-02-05T18:41:00.292Z,100978.16
2024-02-05T18:44:02.356Z,100977.84
2024-02-05T18:47:04.702Z,100975.09
2024-02-05T18:50:07.110Z,100979.50
2024-02-05T18:53:08.985Z,100978.44
2024-02-05T18:56:12.136Z,100985.38
2024-02-05T18:59:14.140Z,100983.06
2024-02-05T19:02:16.146Z,100991.72
2024-02-05T19:05:18.176Z,100993.56
2024-02-05T19:08:20.436Z,100989.47
2024-02-05T19:11:22.331Z,100988.22
2024-02-05T19:14:24.160Z,100989.66
2024-02-05T19:17:26.118Z,100991.09
2024-02-05T19:20:29.200Z,100981.09
2024-02-05T19:23:31.121Z,100993.28
2024-02-05T19:26:32.987Z,100985.16
2024-02-05T19:29:34.917Z,100987.88
2024-02-05T19:32:36.749Z,100987.75
2024-02-05T19:35:38.592Z,100994.00
2024-02-05T19:38:40.345Z,100989.16
2024-02-05T19:41:42.836Z,100980.31
2024-02-05T19:44:44.630Z,100981.44
2024-02-05T19:47:47.342Z,100971.81
2024-02-05T19:50:49.189Z,100970.63
2024-02-05T19:53:50.982Z,100966.09
2024-02-05T19:56:52.845Z,100987.88
2024-02-05T19:59:54.608Z,100985.91
2024-02-05T20:02:56.393Z,100975.72
2024-02-05T20:05:58.141Z,100985.34
2024-02-05T20:09:04.181Z,100982.81
2024-02-05T20:12:09.546Z,100987.31
2024-02-05T20:15:13.108Z,100977.25
2024-02-05T20:18:16.166Z,100978.53
2024-02-05T20:21:19.532Z,100974.31
2024-02-05T20:24:21.286Z,100974.03
2024-02-05T20:27:23.110Z,100970.34
2024-02-05T20:30:24.844Z,100976.91
2024-02-05T20:33:26.777Z,100971.69
2024-02-05T20:36:28.652Z,100974.56
2024-02-05T20:39:30.436Z,100979.38
2024-02-05T20:42:32.215Z,100980.13
2024-02-05T20:45:34.048Z,100982.22
2024-02-05T20:48:36.524Z,100983.50
2024-02-05T20:51:38.438Z,100974.50
2024-02-05T20:54:40.272Z,100973.72
2024-02-05T20:57:42.028Z,100968.94
2024-02-05T21:00:47.464Z,100981.47
2024-02-05T21:03:49.686Z,100980.38
2024-02-05T21:06:51.854Z,100980.47
2024-02-05T21:09:53.758Z,100973.09
2024-02-05T21:12:55.585Z,100986.72
2024-02-05T21:15:57.890Z,100994.81
2024-02-05T21:18:59.991Z,100990.84
2024-02-05T21:22:01.924Z,100998.31
2024-02-05T21:25:04.253Z,100992.19
2024-02-05T21:28:06.606Z,100996.50
2024-02-05T21:31:08.550Z,100995.97
2024-02-05T21:34:11.209Z,100996.50
2024-02-05T21:37:13.228Z,100991.47
2024-02-05T21:40:15.351Z,100997.25
2024-02-05T21:43:17.251Z,100996.56
2024-02-05T21:46:19.186Z,100991.34
2024-02-05T21:49:21.179Z,100994.81
2024-02-05T21:52:24.197Z,100999.28
2024-02-05T21:55:26.054Z,100997.00
2024-02-05T21:58:27.829Z,100992.84
2024-02-05T22:01:29.875Z,101002.31
2024-02-05T22:04:31.960Z,100998.69
2024-02-05T22:07:34.030Z,101003.97
2024-02-05T22:10:36.145Z,100996.59
2024-02-05T22:13:37.945Z,101007.19
2024-02-05T22:16:39.789Z,101001.91
2024-02-05T22:19:42.474Z,101001.06
2024-02-05T22:22:44.321Z,101004.72
2024-02-05T22:25:46.477Z,101005.00
2024-02-05T22:28:48.534Z,101004.66
2024-02-05T22:31:51.797Z,101006.00
2024-02-05T22:34:57.231Z,101010.56
2024-02-05T22:37:59.127Z,101013.31
2024-02-05T22:41:00.896Z,101010.75
2024-02-05T22:44:02.805Z,101005.88
2024-02-05T22:47:04.610Z,101004.66
2024-02-05T22:50:07.166Z,101008.44
2024-02-05T22:53:09.051Z,101014.56
2024-02-05T22:56:10.829Z,101010.34
2024-02-05T22:59:12.798Z,101022.91
2024-02-05T23:02:14.673Z,101026.81
2024-02-05T23:05:17.270Z,101012.41
2024-02-05T23:08:19.156Z,101025.03
2024-02-05T23:11:20.896Z,101012.75
2024-02-05T23:14:24.512Z,101009.19
2024-02-05T23:17:26.382Z,101010.75
2024-02-05T23:20:28.129Z,101012.88
2024-02-05T23:23:29.965Z,101018.34
2024-02-05T23:26:31.748Z,101006.25
2024-02-05T23:29:33.550Z,100994.75
2024-02-05T23:32:36.041Z,101001.06
2024-02-05T23:35:37.941Z,100995.13
2024-02-05T23:38:39.720Z,101005.41
2024-02-05T23:41:41.556Z,100992.56
2024-02-05T23:44:43.398Z,100989.94
2024-02-05T23:47:45.469Z,100986.56
2024-02-05T23:50:47.309Z,100985.25
2024-02-05T23:53:49.104Z,100986.50
2024-02-05T23:56:51.543Z,100990.44
2024-02-05T23:59:53.410Z,100998.31
